This is the latest recevied weather packets stored in our database for station/object WX8ASH-13. If no packets are shown the sender has not sent any weather packets the latest 1 day(s).
| Time | Temp. | Humidity | Pressure | Rain* | Wind** | Luminosity | Snow |
|---|---|---|---|---|---|---|---|
| 1778091025 | 12.22° C | 65% | 1019.5 hPa | 0 mm | - | - | - |
| 1778090726 | 12.78° C | 63% | 1019.4 hPa | 0 mm | - | - | - |
| 1778090425 | 12.78° C | 63% | 1019.5 hPa | 0 mm | - | - | - |
| 1778089825 | 12.78° C | 65% | 1019.5 hPa | 0 mm | - | - | - |
| 1778088324 | 12.78° C | 67% | 1019.3 hPa | 0 mm | - | - | - |
| 1778088024 | 12.22° C | 68% | 1019.3 hPa | 0 mm | - | - | - |
| 1778086524 | 12.22° C | 66% | 1019.2 hPa | 0 mm | - | - | - |
| 1778084422 | 11.67° C | 71% | 1019.2 hPa | 0 mm | - | - | - |
| 1778084122 | 11.67° C | 71% | 1019.2 hPa | 0 mm | - | - | - |
| 1778082922 | 11.11° C | 72% | 1019 hPa | 0 mm | - | - | - |
| 1778082022 | 10.56° C | 73% | 1018.9 hPa | 0 mm | - | - | - |
| 1778081422 | 10.56° C | 80% | 1018.9 hPa | 0 mm | - | - | - |
| 1778080523 | 10° C | 82% | 1018.9 hPa | 0.76 mm | - | - | - |
| 1778079922 | 10° C | 81% | 1018.5 hPa | 0.76 mm | - | - | - |
| 1778079620 | 10° C | 83% | 1018.4 hPa | 0.76 mm | - | - | - |
| 1778077820 | 8.89° C | 86% | 1017.8 hPa | 0.76 mm | - | - | - |
| 1778076618 | 8.33° C | 89% | 1017.9 hPa | 0 mm | - | - | - |
| 1778074520 | 7.22° C | 96% | 1017.8 hPa | 0 mm | - | - | - |
| 1778073918 | 7.22° C | 97% | 1017.7 hPa | 0 mm | - | - | - |
| 1778073019 | 7.22° C | 98% | 1017.5 hPa | 0 mm | - | - | - |
| 1778072716 | 7.22° C | 98% | 1017.4 hPa | 0 mm | - | - | - |
| 1778070618 | 6.67° C | 99% | 1016.8 hPa | 0 mm | - | - | - |
| 1778070315 | 6.67° C | 99% | 1016.8 hPa | 0 mm | - | - | - |
| 1778068815 | 6.67° C | 99% | 1016.3 hPa | 0 mm | - | - | - |
| 1778067616 | 6.11° C | 99% | 1016.4 hPa | 0 mm | - | - | - |
* Rain latest hour (hover to see other rain measurements)
** Current wind speed in m/s (hover to see current wind gust speed)